Austin, Kentucky
Current Conditions -  °F | °C
As of 7:55 PM on Friday 21 Nov 2014 (Local Time) from KGLW Reporting Station
Overcast Overcast  
Wind Chill:   Ceiling: 7000
Heat Index:   Visibility: 10mi
Dew Point: -6°   Wind: 5mph
Humidity: 55%   Direction: 80°E
Pressure: 30.38"   Gusts: NA
Location:  36.83°N, 86.02°W
Report Text: KGLW 220155Z AUTO 08004KT 10SM OVC070 02/M06 A3038 RMK AO2 T00241059
Loading
Personal Weather Stations






























Interactive Weather Map New forecast layout! Learn more

10-Day Weather Forecast

Advertisements
Track Severe Weather on mobile